Terminal Aerodrome Forecast
Issued by NWS

Home | Current Version | Previous Version | Graphics & Text | Print | Product List | Glossary On
Versions: 1 2 3 4 5 6 7 8 9 10 11 12 13 14 15 16 17 18 19 20
000
FTUS43 KIWX 250046 AAA
TAFSBN
TAF AMD
KSBN 250046Z 2501/2524 28013KT 5SM BR BKN003 OVC015
     FM250400 25013KT 4SM BR SCT007 OVC015
     FM251000 26016G24KT 3SM -SHSN SCT009 OVC015
     FM251700 28017G25KT P6SM VCSH OVC025
     FM252100 28015KT P6SM OVC040=

USA.gov is the U.S. government's official web portal to all federal, state and local government web resources and services.